createdAt,value
2017-07-05T00:02:03.648Z,91.70
2017-07-05T00:04:29.998Z,91.70
2017-07-05T00:06:56.352Z,91.70
2017-07-05T00:09:22.695Z,91.80
2017-07-05T00:11:49.053Z,91.90
2017-07-05T00:14:15.446Z,91.90
2017-07-05T00:16:41.765Z,91.90
2017-07-05T00:19:08.162Z,92.00
2017-07-05T00:21:34.515Z,92.10
2017-07-05T00:24:00.883Z,92.20
2017-07-05T00:26:27.967Z,92.70
2017-07-05T00:28:54.334Z,92.30
2017-07-05T00:31:20.678Z,92.30
2017-07-05T00:33:47.057Z,92.40
2017-07-05T00:36:13.367Z,92.40
2017-07-05T00:38:39.782Z,92.40
2017-07-05T00:41:06.892Z,92.50
2017-07-05T00:43:33.219Z,92.50
2017-07-05T00:45:59.597Z,92.50
2017-07-05T00:48:25.961Z,92.50
2017-07-05T00:50:52.330Z,92.50
2017-07-05T00:53:18.667Z,92.50
2017-07-05T00:55:45.771Z,92.60
2017-07-05T00:58:12.180Z,92.60
2017-07-05T01:00:38.564Z,92.60
2017-07-05T01:03:05.044Z,92.60
2017-07-05T01:05:31.413Z,92.50
2017-07-05T01:07:57.765Z,92.50
2017-07-05T01:10:24.853Z,92.80
2017-07-05T01:12:51.199Z,92.70
2017-07-05T01:15:17.573Z,92.80
2017-07-05T01:17:44.658Z,92.80
2017-07-05T01:20:11.022Z,92.80
2017-07-05T01:22:37.384Z,92.80
2017-07-05T01:25:04.535Z,92.80
2017-07-05T01:27:30.894Z,92.80
2017-07-05T01:29:57.268Z,92.80
2017-07-05T01:32:23.653Z,92.50
2017-07-05T01:34:50.078Z,92.40
2017-07-05T01:37:16.429Z,92.40
2017-07-05T01:39:42.810Z,92.40
2017-07-05T01:42:09.202Z,92.50
2017-07-05T01:44:35.585Z,92.60
2017-07-05T01:47:02.714Z,92.70
2017-07-05T01:49:35.953Z,92.70
2017-07-05T01:52:02.326Z,92.80
2017-07-05T01:54:28.695Z,92.90
2017-07-05T01:56:55.127Z,93.00
2017-07-05T01:59:21.471Z,93.00
2017-07-05T02:01:47.882Z,93.10
2017-07-05T02:04:14.233Z,93.10
2017-07-05T02:06:40.583Z,93.10
2017-07-05T02:09:06.917Z,93.10
2017-07-05T02:11:33.271Z,93.10
2017-07-05T02:13:59.616Z,93.20
2017-07-05T02:16:26.715Z,93.20
2017-07-05T02:18:53.097Z,93.20
2017-07-05T02:21:19.482Z,93.10
2017-07-05T02:23:45.838Z,93.40
2017-07-05T02:26:12.207Z,93.20
2017-07-05T02:28:38.592Z,93.30
2017-07-05T02:31:04.913Z,93.40
2017-07-05T02:33:31.247Z,93.40
2017-07-05T02:35:58.362Z,93.60
2017-07-05T02:38:24.728Z,93.40
2017-07-05T02:40:51.107Z,93.30
2017-07-05T02:43:17.446Z,93.20
2017-07-05T02:45:43.826Z,93.10
2017-07-05T02:48:10.924Z,93.00
2017-07-05T02:50:37.313Z,93.00
2017-07-05T02:53:03.651Z,93.10
2017-07-05T02:55:30.014Z,93.20
2017-07-05T02:57:56.325Z,93.20
2017-07-05T03:00:22.715Z,93.20
2017-07-05T03:02:49.888Z,93.40
2017-07-05T03:05:16.252Z,93.40
2017-07-05T03:07:42.638Z,93.50
2017-07-05T03:10:09.720Z,93.50
2017-07-05T03:12:36.072Z,93.40
2017-07-05T03:15:02.403Z,94.00
2017-07-05T03:17:28.771Z,94.80
2017-07-05T03:19:55.129Z,94.40
2017-07-05T03:22:21.474Z,93.50
2017-07-05T03:24:47.856Z,93.30
2017-07-05T03:27:14.235Z,92.90
2017-07-05T03:29:40.619Z,93.00
2017-07-05T03:32:06.987Z,92.90
2017-07-05T03:34:33.313Z,92.10
2017-07-05T03:36:59.652Z,91.70
2017-07-05T03:39:26.023Z,91.50
2017-07-05T03:41:53.134Z,91.20
2017-07-05T03:44:19.478Z,91.10
2017-07-05T03:46:45.840Z,91.20
2017-07-05T03:49:12.211Z,90.90
2017-07-05T03:51:38.564Z,90.90
2017-07-05T03:54:04.896Z,90.70
2017-07-05T03:56:31.213Z,90.80
2017-07-05T03:58:57.603Z,90.80
2017-07-05T04:01:24.005Z,90.60
2017-07-05T04:03:51.175Z,90.40
2017-07-05T04:06:17.550Z,90.40
2017-07-05T04:08:43.943Z,90.50
2017-07-05T04:11:10.644Z,90.70
2017-07-05T04:13:36.997Z,90.60
2017-07-05T04:16:04.072Z,90.50
2017-07-05T04:18:30.416Z,90.80
2017-07-05T04:20:56.753Z,90.40
2017-07-05T04:23:23.109Z,90.40
2017-07-05T04:25:49.501Z,90.60
2017-07-05T04:28:15.848Z,90.60
2017-07-05T04:30:42.212Z,90.30
2017-07-05T04:33:09.304Z,90.50
2017-07-05T04:35:35.645Z,90.40
2017-07-05T04:38:02.012Z,90.50
2017-07-05T04:40:28.381Z,90.50
2017-07-05T04:42:54.755Z,90.70
2017-07-05T04:45:21.088Z,90.80
2017-07-05T04:47:47.511Z,90.60
2017-07-05T04:50:13.857Z,90.40
2017-07-05T04:52:40.965Z,90.80
2017-07-05T04:55:07.355Z,90.50
2017-07-05T04:57:33.699Z,90.40
2017-07-05T05:00:00.067Z,90.20
2017-07-05T05:02:26.457Z,90.10
2017-07-05T05:04:52.800Z,89.70
2017-07-05T05:07:19.167Z,89.30
2017-07-05T05:09:45.550Z,88.80
2017-07-05T05:12:11.899Z,88.80
2017-07-05T05:14:38.272Z,88.60
2017-07-05T05:17:04.656Z,88.60
2017-07-05T05:19:31.038Z,88.90
2017-07-05T05:21:58.128Z,89.50
2017-07-05T05:24:24.429Z,89.40
2017-07-05T05:26:50.769Z,89.80
2017-07-05T05:29:17.159Z,90.00
2017-07-05T05:31:43.606Z,90.50
2017-07-05T05:34:10.768Z,90.70
2017-07-05T05:36:37.924Z,90.50
2017-07-05T05:39:04.267Z,90.40
2017-07-05T05:41:30.622Z,90.20
2017-07-05T05:43:56.935Z,89.60
2017-07-05T05:46:23.288Z,88.90
2017-07-05T05:48:49.660Z,88.60
2017-07-05T05:51:16.044Z,89.10
2017-07-05T05:53:42.402Z,88.70
2017-07-05T05:56:08.760Z,89.00
2017-07-05T05:58:35.131Z,88.00
2017-07-05T06:01:01.461Z,88.10
2017-07-05T06:03:27.963Z,86.50
2017-07-05T06:05:54.279Z,85.50
2017-07-05T06:08:20.648Z,85.80
2017-07-05T06:10:46.977Z,85.80
2017-07-05T06:13:13.340Z,85.70
2017-07-05T06:15:39.702Z,85.70
2017-07-05T06:18:06.132Z,85.80
2017-07-05T06:20:32.496Z,85.80
2017-07-05T06:22:58.859Z,86.10
2017-07-05T06:25:25.968Z,84.50
2017-07-05T06:27:52.323Z,84.70
2017-07-05T06:30:18.682Z,85.40
2017-07-05T06:32:45.075Z,84.50
2017-07-05T06:35:11.503Z,84.10
2017-07-05T06:37:37.879Z,82.60
2017-07-05T06:40:04.255Z,82.20
2017-07-05T06:42:30.572Z,81.80
2017-07-05T06:44:56.945Z,80.90
2017-07-05T06:47:24.057Z,80.40
2017-07-05T06:49:50.419Z,80.30
2017-07-05T06:52:17.574Z,79.00
2017-07-05T06:54:44.743Z,79.10
2017-07-05T06:57:11.100Z,79.00
2017-07-05T06:59:37.463Z,79.00
2017-07-05T07:02:03.899Z,79.00
2017-07-05T07:04:30.269Z,79.00
2017-07-05T07:06:56.685Z,77.10
2017-07-05T07:09:23.078Z,75.40
2017-07-05T07:11:49.395Z,75.90
2017-07-05T07:14:15.728Z,75.80
2017-07-05T07:16:42.069Z,75.50
2017-07-05T07:19:08.444Z,76.00
2017-07-05T07:21:34.788Z,75.60
2017-07-05T07:24:08.925Z,75.20
2017-07-05T07:26:35.289Z,75.20
2017-07-05T07:29:01.691Z,74.70
2017-07-05T07:31:28.042Z,73.20
2017-07-05T07:33:55.160Z,71.40
2017-07-05T07:36:21.499Z,71.40
2017-07-05T07:38:47.876Z,71.20
2017-07-05T07:41:15.927Z,70.10
2017-07-05T07:43:43.044Z,69.20
2017-07-05T07:46:09.419Z,69.20
2017-07-05T07:48:35.776Z,68.80
2017-07-05T07:51:02.135Z,68.70
2017-07-05T07:53:28.512Z,68.30
2017-07-05T07:55:54.907Z,67.50
2017-07-05T07:58:21.271Z,67.80
2017-07-05T08:00:47.632Z,68.30
2017-07-05T08:03:14.039Z,68.10
2017-07-05T08:05:40.452Z,69.60
2017-07-05T08:08:07.592Z,67.30
2017-07-05T08:10:33.953Z,67.30
2017-07-05T08:13:00.301Z,66.20
2017-07-05T08:15:26.663Z,65.10
2017-07-05T08:17:53.003Z,64.60
2017-07-05T08:20:20.122Z,64.20
2017-07-05T08:22:46.479Z,64.20
2017-07-05T08:25:13.651Z,64.40
2017-07-05T08:27:40.033Z,64.40
2017-07-05T08:30:06.394Z,64.10
2017-07-05T08:32:32.822Z,63.50
2017-07-05T08:34:59.954Z,61.60
2017-07-05T08:37:26.319Z,61.60
2017-07-05T08:39:52.739Z,61.60
2017-07-05T08:42:19.093Z,62.20
2017-07-05T08:44:45.479Z,62.80
2017-07-05T08:47:11.839Z,62.30
2017-07-05T08:49:38.222Z,61.20
2017-07-05T08:52:04.573Z,61.40
2017-07-05T08:54:30.971Z,59.60
2017-07-05T08:56:57.336Z,57.40
2017-07-05T08:59:23.684Z,57.60
2017-07-05T09:01:50.153Z,57.80
2017-07-05T09:04:16.537Z,57.40
2017-07-05T09:06:42.919Z,56.00
2017-07-05T09:09:09.284Z,55.50
2017-07-05T09:11:35.716Z,54.60
2017-07-05T09:14:02.834Z,52.90
2017-07-05T09:16:29.212Z,52.90
2017-07-05T09:18:55.741Z,51.70
2017-07-05T09:21:22.147Z,50.90
2017-07-05T09:23:48.500Z,51.30
2017-07-05T09:26:15.765Z,52.70
2017-07-05T09:28:42.118Z,52.60
2017-07-05T09:31:08.488Z,51.90
2017-07-05T09:33:34.858Z,51.60
2017-07-05T09:36:01.214Z,51.40
2017-07-05T09:38:27.546Z,50.80
2017-07-05T09:40:53.897Z,50.50
2017-07-05T09:43:20.271Z,51.30
2017-07-05T09:45:46.659Z,50.80
2017-07-05T09:48:13.041Z,50.30
2017-07-05T09:50:39.428Z,49.70
2017-07-05T09:53:05.784Z,50.00
2017-07-05T09:55:32.150Z,51.10
2017-07-05T09:57:58.597Z,51.00
2017-07-05T10:00:25.259Z,49.30
2017-07-05T10:02:51.711Z,48.20
2017-07-05T10:05:18.064Z,46.40
2017-07-05T10:07:44.456Z,45.50
2017-07-05T10:10:11.561Z,44.20
2017-07-05T10:12:37.928Z,44.20
2017-07-05T10:15:04.291Z,43.70
2017-07-05T10:17:30.711Z,42.90
2017-07-05T10:19:57.100Z,44.60
2017-07-05T10:22:23.524Z,43.50
2017-07-05T10:24:49.888Z,43.70
2017-07-05T10:27:16.991Z,41.90
2017-07-05T10:29:43.347Z,41.90
2017-07-05T10:32:09.733Z,41.20
2017-07-05T10:34:36.061Z,41.80
2017-07-05T10:37:02.447Z,41.10
2017-07-05T10:39:29.554Z,39.50
2017-07-05T10:41:55.891Z,39.60
2017-07-05T10:44:22.313Z,39.10
2017-07-05T10:46:48.678Z,38.20
2017-07-05T10:49:14.998Z,38.70
2017-07-05T10:51:41.368Z,38.60
2017-07-05T10:54:07.723Z,37.90
2017-07-05T10:56:34.118Z,37.90
2017-07-05T10:59:00.515Z,37.40
2017-07-05T11:01:26.905Z,37.60
2017-07-05T11:03:53.314Z,36.50
2017-07-05T11:06:19.655Z,35.50
2017-07-05T11:08:45.984Z,35.40
2017-07-05T11:11:12.352Z,33.50
2017-07-05T11:13:38.726Z,32.70
2017-07-05T11:16:05.829Z,34.40
2017-07-05T11:18:32.190Z,34.40
2017-07-05T11:20:59.261Z,33.90
2017-07-05T11:23:25.606Z,33.80
2017-07-05T11:25:51.948Z,33.30
2017-07-05T11:28:18.423Z,32.90
2017-07-05T11:30:44.791Z,33.20
2017-07-05T11:33:11.151Z,31.60
2017-07-05T11:35:37.515Z,31.60
2017-07-05T11:38:03.876Z,32.20
2017-07-05T11:40:30.210Z,30.40
2017-07-05T11:42:56.569Z,29.90
2017-07-05T11:45:22.921Z,31.00
2017-07-05T11:47:49.307Z,30.90
2017-07-05T11:50:15.640Z,30.40
2017-07-05T11:52:41.958Z,31.10
2017-07-05T11:55:08.324Z,31.80
2017-07-05T11:57:34.729Z,31.80
2017-07-05T12:00:01.114Z,31.40
2017-07-05T12:02:27.578Z,30.90
2017-07-05T12:04:53.944Z,30.90
2017-07-05T12:07:20.303Z,31.20
2017-07-05T12:09:47.360Z,30.80
2017-07-05T12:12:13.723Z,30.70
2017-07-05T12:14:40.310Z,31.80
2017-07-05T12:17:07.050Z,31.50
2017-07-05T12:19:33.475Z,31.00
2017-07-05T12:21:59.819Z,30.00
2017-07-05T12:24:26.928Z,30.20
2017-07-05T12:26:53.260Z,30.20
2017-07-05T12:29:19.615Z,30.10
2017-07-05T12:31:46.727Z,30.50
2017-07-05T12:34:13.078Z,30.40
2017-07-05T12:36:39.453Z,29.90
2017-07-05T12:39:05.784Z,30.20
2017-07-05T12:41:32.101Z,29.60
2017-07-05T12:43:58.486Z,28.80
2017-07-05T12:46:24.850Z,29.10
2017-07-05T12:48:51.243Z,29.50
2017-07-05T12:51:17.592Z,29.00
2017-07-05T12:53:43.983Z,28.70
2017-07-05T12:56:10.371Z,29.50
2017-07-05T12:58:37.498Z,28.80
2017-07-05T13:01:03.840Z,28.80
2017-07-05T13:03:30.269Z,28.40
2017-07-05T13:05:57.377Z,27.90
2017-07-05T13:08:23.728Z,28.30
2017-07-05T13:10:50.059Z,28.50
2017-07-05T13:13:16.434Z,28.30
2017-07-05T13:15:42.831Z,28.30
2017-07-05T13:18:09.936Z,28.00
2017-07-05T13:20:36.332Z,27.50
2017-07-05T13:23:02.701Z,27.10
2017-07-05T13:25:29.095Z,27.30
2017-07-05T13:27:55.392Z,26.90
2017-07-05T13:30:21.830Z,27.00
2017-07-05T13:32:48.181Z,27.20
2017-07-05T13:35:14.577Z,27.20
2017-07-05T13:37:40.911Z,27.00
2017-07-05T13:40:07.262Z,27.20
2017-07-05T13:42:34.346Z,27.80
2017-07-05T13:45:00.720Z,27.70
2017-07-05T13:47:27.812Z,27.60
2017-07-05T13:49:54.195Z,27.60
2017-07-05T13:52:21.292Z,25.40
2017-07-05T13:54:47.686Z,25.30
2017-07-05T13:57:14.792Z,26.80
2017-07-05T13:59:41.186Z,26.80
2017-07-05T14:02:07.803Z,27.00
2017-07-05T14:04:34.149Z,26.60
2017-07-05T14:07:00.499Z,26.20
2017-07-05T14:09:26.882Z,25.60
2017-07-05T14:11:53.979Z,25.80
2017-07-05T14:14:20.325Z,25.70
2017-07-05T14:16:46.691Z,26.60
2017-07-05T14:19:13.788Z,26.00
2017-07-05T14:21:40.141Z,25.90
2017-07-05T14:24:06.531Z,26.10
2017-07-05T14:26:32.882Z,25.90
2017-07-05T14:28:59.241Z,27.00
2017-07-05T14:31:28.410Z,27.20
2017-07-05T14:33:54.782Z,28.20
2017-07-05T14:36:21.907Z,28.00
2017-07-05T14:38:48.250Z,28.00
2017-07-05T14:41:14.644Z,28.50
2017-07-05T14:43:40.975Z,28.60
2017-07-05T14:46:07.345Z,28.40
2017-07-05T14:48:33.682Z,27.70
2017-07-05T14:51:00.799Z,27.70
2017-07-05T14:53:27.168Z,28.20
2017-07-05T14:55:53.586Z,27.40
2017-07-05T14:58:20.725Z,27.30
2017-07-05T15:00:47.862Z,27.40
2017-07-05T15:03:14.335Z,27.40
2017-07-05T15:05:40.781Z,27.00
2017-07-05T15:08:07.112Z,27.10
2017-07-05T15:10:33.480Z,26.60
2017-07-05T15:12:59.833Z,27.00
2017-07-05T15:15:26.206Z,27.00
2017-07-05T15:17:52.576Z,27.60
2017-07-05T15:20:18.948Z,26.90
2017-07-05T15:22:45.308Z,27.30
2017-07-05T15:25:11.711Z,26.80
2017-07-05T15:27:38.139Z,26.80
2017-07-05T15:30:04.521Z,27.30
2017-07-05T15:32:30.882Z,27.30
2017-07-05T15:34:57.222Z,27.70
2017-07-05T15:37:23.568Z,27.70
2017-07-05T15:39:49.947Z,28.10
2017-07-05T15:42:16.313Z,27.90
2017-07-05T15:44:43.011Z,28.30
2017-07-05T15:47:09.387Z,28.20
2017-07-05T15:49:35.758Z,28.10
2017-07-05T15:52:02.112Z,27.80
2017-07-05T15:54:28.484Z,27.60
2017-07-05T15:56:54.837Z,27.40
2017-07-05T15:59:21.239Z,27.20
2017-07-05T16:01:47.640Z,27.00
2017-07-05T16:04:14.811Z,27.40
2017-07-05T16:06:41.224Z,27.30
2017-07-05T16:09:07.602Z,27.70
2017-07-05T16:11:34.028Z,27.50
2017-07-05T16:14:00.418Z,27.10
2017-07-05T16:16:27.569Z,27.70
2017-07-05T16:18:53.956Z,27.60
2017-07-05T16:21:20.354Z,28.50
2017-07-05T16:23:46.714Z,28.00
2017-07-05T16:26:13.064Z,28.00
2017-07-05T16:28:39.421Z,28.40
2017-07-05T16:31:05.952Z,28.70
2017-07-05T16:33:32.351Z,29.10
2017-07-05T16:35:58.717Z,28.50
2017-07-05T16:38:25.096Z,28.10
2017-07-05T16:40:51.727Z,28.40
2017-07-05T16:43:18.084Z,28.80
2017-07-05T16:45:45.204Z,29.40
2017-07-05T16:48:11.731Z,29.40
2017-07-05T16:50:38.096Z,29.30
2017-07-05T16:53:04.437Z,29.80
2017-07-05T16:55:30.805Z,30.20
2017-07-05T16:57:57.486Z,30.80
2017-07-05T17:00:24.217Z,30.50
2017-07-05T17:02:50.673Z,30.50
2017-07-05T17:05:17.042Z,30.40
2017-07-05T17:07:43.413Z,30.30
2017-07-05T17:10:10.789Z,30.40
2017-07-05T17:12:37.138Z,29.80
2017-07-05T17:15:03.498Z,29.60
2017-07-05T17:17:29.847Z,30.00
2017-07-05T17:19:56.507Z,30.40
2017-07-05T17:22:23.575Z,30.20
2017-07-05T17:24:49.992Z,30.20
2017-07-05T17:27:16.314Z,30.40
2017-07-05T17:29:42.730Z,30.70
2017-07-05T17:32:09.153Z,31.10
2017-07-05T17:34:35.527Z,31.50
2017-07-05T17:37:01.895Z,32.50
2017-07-05T17:39:28.274Z,33.20
2017-07-05T17:41:55.006Z,33.90
2017-07-05T17:44:21.367Z,34.20
2017-07-05T17:46:47.777Z,34.80
2017-07-05T17:49:14.118Z,35.20
2017-07-05T17:51:40.459Z,36.20
2017-07-05T17:54:06.850Z,35.90
2017-07-05T17:56:33.220Z,36.20
2017-07-05T17:58:59.872Z,37.00
2017-07-05T18:01:26.354Z,36.70
2017-07-05T18:03:54.887Z,37.50
2017-07-05T18:06:21.358Z,37.80
2017-07-05T18:08:48.451Z,38.60
2017-07-05T18:11:14.814Z,38.60
2017-07-05T18:13:41.182Z,39.80
2017-07-05T18:16:07.596Z,39.60
2017-07-05T18:18:34.709Z,40.50
2017-07-05T18:21:01.081Z,40.50
2017-07-05T18:23:27.438Z,41.40
2017-07-05T18:25:53.869Z,41.40
2017-07-05T18:28:20.233Z,41.30
2017-07-05T18:30:46.587Z,41.40
2017-07-05T18:33:13.700Z,43.00
2017-07-05T18:35:40.077Z,42.20
2017-07-05T18:38:07.194Z,42.70
2017-07-05T18:40:33.590Z,42.70
2017-07-05T18:42:59.937Z,43.30
2017-07-05T18:45:26.381Z,43.60
2017-07-05T18:47:52.792Z,44.10
2017-07-05T18:52:52.405Z,45.00
2017-07-05T18:55:18.869Z,45.90
2017-07-05T18:57:45.294Z,45.50
2017-07-05T19:00:12.563Z,46.70
2017-07-05T19:02:41.528Z,46.60
2017-07-05T19:05:08.289Z,46.60
2017-07-05T19:07:34.637Z,46.80
2017-07-05T19:10:00.981Z,47.30
2017-07-05T19:12:27.360Z,48.70
2017-07-05T19:14:53.914Z,50.00
2017-07-05T19:17:20.438Z,50.70
2017-07-05T19:19:47.610Z,51.40
2017-07-05T19:22:13.984Z,51.80
2017-07-05T19:24:40.367Z,52.30
2017-07-05T19:27:06.761Z,53.10
2017-07-05T19:29:33.143Z,53.90
2017-07-05T19:31:59.562Z,54.40
2017-07-05T19:34:26.686Z,55.20
2017-07-05T19:36:53.086Z,55.20
2017-07-05T19:39:19.474Z,55.60
2017-07-05T19:41:45.843Z,56.40
2017-07-05T19:44:12.207Z,56.70
2017-07-05T19:46:38.617Z,56.70
2017-07-05T19:49:05.017Z,57.10
2017-07-05T19:51:31.427Z,57.10
2017-07-05T19:53:57.789Z,57.30
2017-07-05T19:56:24.146Z,58.30
2017-07-05T19:58:50.511Z,58.70
2017-07-05T20:01:17.662Z,59.60
2017-07-05T20:03:44.180Z,59.60
2017-07-05T20:06:10.583Z,60.10
2017-07-05T20:08:37.036Z,61.20
2017-07-05T20:11:03.473Z,62.00
2017-07-05T20:13:29.834Z,62.20
2017-07-05T20:15:56.245Z,62.00
2017-07-05T20:18:23.368Z,62.70
2017-07-05T20:20:49.723Z,62.70
2017-07-05T20:23:16.126Z,63.60
2017-07-05T20:25:42.487Z,64.10
2017-07-05T20:28:09.609Z,64.90
2017-07-05T20:30:35.979Z,64.90
2017-07-05T20:33:02.343Z,65.70
2017-07-05T20:35:28.709Z,66.40
2017-07-05T20:37:55.094Z,66.90
2017-07-05T20:40:21.500Z,67.00
2017-07-05T20:42:47.862Z,66.30
2017-07-05T20:45:14.246Z,66.80
2017-07-05T20:47:40.634Z,67.80
2017-07-05T20:50:07.009Z,67.80
2017-07-05T20:52:33.381Z,67.10
2017-07-05T20:54:59.728Z,66.80
2017-07-05T20:57:26.055Z,67.50
2017-07-05T20:59:52.431Z,68.50
2017-07-05T21:02:18.881Z,68.70
2017-07-05T21:04:45.236Z,68.40
2017-07-05T21:07:11.653Z,68.40
2017-07-05T21:09:37.961Z,68.30
2017-07-05T21:12:04.371Z,68.40
2017-07-05T21:14:31.431Z,69.90
2017-07-05T21:16:57.792Z,69.90
2017-07-05T21:19:24.145Z,71.30
2017-07-05T21:21:50.801Z,71.70
2017-07-05T21:24:17.135Z,72.10
2017-07-05T21:26:44.237Z,73.00
2017-07-05T21:29:10.609Z,72.80
2017-07-05T21:31:36.941Z,73.40
2017-07-05T21:34:04.084Z,74.70
2017-07-05T21:36:30.420Z,73.80
2017-07-05T21:38:57.531Z,74.30
2017-07-05T21:41:23.902Z,74.30
2017-07-05T21:43:50.218Z,74.30
2017-07-05T21:46:16.543Z,74.50
2017-07-05T21:48:42.911Z,75.20
2017-07-05T21:51:09.286Z,75.80
2017-07-05T21:53:35.651Z,75.90
2017-07-05T21:56:02.746Z,76.90
2017-07-05T21:58:29.103Z,76.90
2017-07-05T22:00:55.578Z,77.40
2017-07-05T22:03:22.010Z,77.60
2017-07-05T22:05:48.362Z,77.90
2017-07-05T22:08:14.769Z,78.20
2017-07-05T22:10:41.128Z,78.20
2017-07-05T22:13:07.488Z,78.30
2017-07-05T22:15:33.817Z,78.50
2017-07-05T22:18:00.172Z,78.50
2017-07-05T22:20:27.327Z,78.60
2017-07-05T22:22:53.688Z,78.80
2017-07-05T22:25:20.044Z,78.90
2017-07-05T22:27:46.399Z,79.00
2017-07-05T22:30:13.492Z,79.80
2017-07-05T22:32:39.887Z,79.80
2017-07-05T22:35:06.237Z,80.20
2017-07-05T22:37:32.598Z,80.70
2017-07-05T22:39:58.980Z,81.30
2017-07-05T22:42:25.316Z,81.60
2017-07-05T22:44:51.703Z,82.00
2017-07-05T22:47:18.035Z,82.20
2017-07-05T22:49:44.381Z,82.70
2017-07-05T22:52:11.465Z,83.10
2017-07-05T22:54:37.825Z,83.20
2017-07-05T22:57:04.165Z,83.30
2017-07-05T22:59:30.521Z,83.50
2017-07-05T23:01:57.671Z,84.20
2017-07-05T23:04:24.083Z,84.20
2017-07-05T23:06:51.174Z,84.70
2017-07-05T23:09:17.503Z,84.60
2017-07-05T23:11:43.850Z,84.90
2017-07-05T23:14:10.243Z,85.30
2017-07-05T23:16:36.590Z,85.60
2017-07-05T23:19:03.033Z,85.90
2017-07-05T23:21:29.394Z,85.80
2017-07-05T23:23:56.479Z,86.30
2017-07-05T23:26:22.831Z,85.50
2017-07-05T23:28:49.219Z,85.40
2017-07-05T23:31:16.318Z,85.40
2017-07-05T23:33:42.662Z,85.40
2017-07-05T23:36:09.024Z,85.50
2017-07-05T23:38:35.373Z,86.20
2017-07-05T23:41:02.439Z,85.60
2017-07-05T23:43:28.841Z,85.50
2017-07-05T23:45:55.275Z,85.50
2017-07-05T23:48:22.366Z,85.80
2017-07-05T23:50:48.735Z,85.80
2017-07-05T23:53:15.815Z,86.10
2017-07-05T23:55:42.203Z,86.10
2017-07-05T23:58:08.585Z,86.60
